Archival Weather

Biggin Hill

Biggin Hill, United Kingdom (EGKB)

Report from: Sunday, September 25, 2022 8:20 PM BST
Current time: Saturday, March 2, 2024 11:03 AM GMT

Current weather – Weather history – Daily summaries
Weather forecast

Temperature11.0°C (51.8°F)
Dew point4.0°C (39.2°F)
Winds 7 kts (3.6 m/s, 8.1 mph) South-Southwest (210°)
Clouds Sky clear
Altimeter29.94 in.Hg (1014 mB)
Relative humidity62 %
Density altitude-382 ft. (-117 m)
Remarks Ceiling and visibility OK
Flight conditions Visual Meteorological Conditions
Raw dataEGKB 251920Z 21007KT CAVOK 11/04 Q1014
An error has occurred. This application may no longer respond until reloaded. Reload 🗙